Dearborn Heights, Michigan
Current Conditions -  °F | °C
As of 1:23 PM on Wednesday 26 Nov 2014 (Local Time) from KDTW Reporting Station
Overcast Overcast  
Wind Chill: 34°   Ceiling: 2000
Heat Index: 34°   Visibility: 8mi
Dew Point: 25°   Wind: 3mph
Humidity: 70%   Direction: NA
Pressure: 30.12"   Gusts: NA
Location:  42.33°N, 83.28°W
Report Text: KDTW 261823Z VRB03KT 8SM BKN020 OVC035 01/M04 A3012 RMK AO2 $
Loading
Personal Weather Stations






























Interactive Weather Map New forecast layout! Learn more

10-Day Weather Forecast

Advertisements
Track Severe Weather on mobile